Back to Top

Language: 

My Weather Underground Personal Weather Station Historical Data with Graphs...

Delerius Weather Station Historical Data
Daily Summary for April 28, 2017 Units:  English    Metric   Both
« Previous Day
Next Day »
Daily Weekly Monthly Yearly Custom
  High: Low: Average:
Temperature: 56.7 °F 38.7 °F 48.7 °F
Dew Point: 44.0 °F 36.8 °F 40.4 °F
Humidity: 95 % 50 % 75 %
Wind Speed: 6.0 mph 0.0 mph 1.9 mph
Wind Gust: 14.0 mph - -
Wind:- - WSW
Pressure: 30.05 in 29.97 in -
Precipitation: 0.00 in    
Historical Graphs
 
 
Tabular Data for April 28, 2017
Time Temperature Dew Point Pressure Wind Wind Speed Wind Gust Humidity Rainfall Rate (Hourly) solar Conditions
00:02 44.6 °F 43.3 °F 30.04 in Calm   2.0 mph 95 % 0.01 in 0 W/m2
00:07 44.6 °F 43.3 °F 30.04 in Calm   2.0 mph 95 % 0.01 in 0 W/m2
00:12 44.6 °F 43.3 °F 30.04 in Calm   1.0 mph 95 % 0.00 in 0 W/m2
00:17 44.4 °F 43.1 °F 30.04 in Calm   1.0 mph 95 % 0.00 in 0 W/m2
00:22 44.4 °F 43.1 °F 30.04 in Calm   1.0 mph 95 % 0.00 in 0 W/m2
00:27 44.4 °F 43.1 °F 30.05 in Calm   1.0 mph 95 % 0.00 in 0 W/m2
00:32 44.2 °F 42.9 °F 30.05 in Calm   1.0 mph 95 % 0.00 in 0 W/m2
00:37 44.2 °F 42.9 °F 30.05 in Calm   2.0 mph 95 % 0.00 in 0 W/m2
00:42 44.2 °F 42.9 °F 30.05 in Calm   2.0 mph 95 % 0.00 in 0 W/m2
00:47 44.1 °F 42.7 °F 30.04 in Calm   2.0 mph 95 % 0.00 in 0 W/m2
00:52 44.1 °F 42.7 °F 30.05 in NNW 1.0 mph 3.0 mph 95 % 0.00 in 0 W/m2
00:57 44.1 °F 42.7 °F 30.05 in NNW 1.0 mph 5.0 mph 95 % 0.00 in 0 W/m2
01:02 43.9 °F 42.5 °F 30.05 in NNW 1.0 mph 5.0 mph 95 % 0.00 in 0 W/m2
01:07 43.9 °F 42.5 °F 30.05 in NNW 1.0 mph 6.0 mph 95 % 0.00 in 0 W/m2
01:12 43.7 °F 42.1 °F 30.05 in North 1.0 mph 6.0 mph 94 % 0.00 in 0 W/m2
01:17 43.5 °F 41.9 °F 30.04 in North 2.0 mph 6.0 mph 94 % 0.00 in 0 W/m2
01:22 43.5 °F 41.9 °F 30.04 in North 1.0 mph 6.0 mph 94 % 0.00 in 0 W/m2
01:27 43.5 °F 41.9 °F 30.04 in Calm   4.0 mph 94 % 0.00 in 0 W/m2
01:32 43.5 °F 41.9 °F 30.04 in Calm   3.0 mph 94 % 0.00 in 0 W/m2
01:37 43.5 °F 41.9 °F 30.04 in Calm   2.0 mph 94 % 0.00 in 0 W/m2
01:42 43.5 °F 41.9 °F 30.04 in North 1.0 mph 2.0 mph 94 % 0.00 in 0 W/m2
01:46 43.5 °F 41.9 °F 30.04 in North 1.0 mph 2.0 mph 94 % 0.00 in 0 W/m2
01:51 43.5 °F 41.9 °F 30.04 in Calm   2.0 mph 94 % 0.00 in 0 W/m2
01:56 43.3 °F 41.7 °F 30.04 in Calm   1.0 mph 94 % 0.00 in 0 W/m2
02:01 43.3 °F 41.7 °F 30.04 in Calm   1.0 mph 94 % 0.00 in 0 W/m2
02:06 43.3 °F 41.7 °F 30.04 in Calm   1.0 mph 94 % 0.00 in 0 W/m2
02:11 43.3 °F 41.7 °F 30.03 in Calm   1.0 mph 94 % 0.00 in 0 W/m2
02:16 43.3 °F 41.7 °F 30.03 in Calm   1.0 mph 94 % 0.00 in 0 W/m2
02:21 43.3 °F 41.7 °F 30.03 in Calm   2.0 mph 94 % 0.00 in 0 W/m2
02:26 43.3 °F 41.7 °F 30.03 in Calm   2.0 mph 94 % 0.00 in 0 W/m2
02:31 43.3 °F 41.7 °F 30.03 in Calm   1.0 mph 94 % 0.00 in 0 W/m2
02:36 43.3 °F 41.7 °F 30.03 in Calm     94 % 0.00 in 0 W/m2
02:41 43.2 °F 41.6 °F 30.03 in Calm     94 % 0.00 in 0 W/m2
02:46 43.2 °F 41.6 °F 30.03 in Calm     94 % 0.00 in 0 W/m2
02:51 43.2 °F 41.6 °F 30.03 in Calm   2.0 mph 94 % 0.00 in 0 W/m2
02:56 43.2 °F 41.6 °F 30.03 in Calm   2.0 mph 94 % 0.00 in 0 W/m2
03:01 43.0 °F 41.4 °F 30.03 in Calm     94 % 0.00 in 0 W/m2
03:06 43.0 °F 41.4 °F 30.03 in Calm     94 % 0.00 in 0 W/m2
03:11 43.0 °F 41.4 °F 30.03 in Calm   1.0 mph 94 % 0.00 in 0 W/m2
03:16 43.0 °F 41.4 °F 30.02 in Calm   1.0 mph 94 % 0.00 in 0 W/m2
03:21 43.0 °F 41.4 °F 30.02 in Calm   3.0 mph 94 % 0.00 in 0 W/m2
03:26 42.8 °F 41.2 °F 30.03 in NNW 1.0 mph 3.0 mph 94 % 0.00 in 0 W/m2
03:31 42.8 °F 41.2 °F 30.03 in NNW 1.0 mph 3.0 mph 94 % 0.00 in 0 W/m2
03:36 42.8 °F 41.2 °F 30.03 in NNW 1.0 mph 2.0 mph 94 % 0.00 in 0 W/m2
03:41 42.8 °F 41.2 °F 30.03 in Calm   2.0 mph 94 % 0.00 in 0 W/m2
03:46 42.6 °F 41.0 °F 30.03 in NNW 1.0 mph 3.0 mph 94 % 0.00 in 0 W/m2
03:51 42.6 °F 41.0 °F 30.03 in NW 1.0 mph 6.0 mph 94 % 0.00 in 0 W/m2
03:56 42.6 °F 41.0 °F 30.03 in NW 2.0 mph 6.0 mph 94 % 0.00 in 0 W/m2
04:02 42.6 °F 41.0 °F 30.03 in NW 1.0 mph 5.0 mph 94 % 0.00 in 0 W/m2
04:07 42.4 °F 40.8 °F 30.02 in NW 1.0 mph 3.0 mph 94 % 0.00 in 0 W/m2
04:12 42.4 °F 40.8 °F 30.02 in NW 1.0 mph 4.0 mph 94 % 0.00 in 0 W/m2
04:17 42.4 °F 40.8 °F 30.02 in NW 1.0 mph 4.0 mph 94 % 0.00 in 0 W/m2
04:22 42.3 °F 40.7 °F 30.02 in NW 1.0 mph 4.0 mph 94 % 0.00 in 0 W/m2
04:27 42.3 °F 40.7 °F 30.02 in NW 1.0 mph 4.0 mph 94 % 0.00 in 0 W/m2
04:32 42.1 °F 40.2 °F 30.02 in NNW 1.0 mph 6.0 mph 93 % 0.00 in 0 W/m2
04:37 41.9 °F 40.0 °F 30.02 in NNW 2.0 mph 6.0 mph 93 % 0.00 in 0 W/m2
04:42 41.5 °F 39.7 °F 30.02 in North 1.0 mph 6.0 mph 93 % 0.00 in 0 W/m2
04:47 41.5 °F 39.7 °F 30.02 in North 2.0 mph 6.0 mph 93 % 0.00 in 0 W/m2
04:52 41.4 °F 39.2 °F 30.03 in NNW 1.0 mph 6.0 mph 92 % 0.00 in 0 W/m2
04:57 41.2 °F 39.0 °F 30.03 in NNW 1.0 mph 5.0 mph 92 % 0.00 in 0 W/m2
05:02 41.2 °F 39.0 °F 30.03 in NNW 1.0 mph 4.0 mph 92 % 0.00 in 0 W/m2
05:07 40.8 °F 38.7 °F 30.03 in NNW 1.0 mph 4.0 mph 92 % 0.00 in 0 W/m2
05:12 40.6 °F 38.5 °F 30.03 in NNW 2.0 mph 5.0 mph 92 % 0.00 in 0 W/m2
05:17 40.5 °F 38.3 °F 30.03 in NNW 2.0 mph 5.0 mph 92 % 0.00 in 0 W/m2
05:22 40.3 °F 38.1 °F 30.03 in NNW 2.0 mph 4.0 mph 92 % 0.00 in 0 W/m2
05:27 40.1 °F 38.0 °F 30.02 in NNW 2.0 mph 5.0 mph 92 % 0.00 in 0 W/m2
05:32 39.9 °F 37.8 °F 30.02 in NNW 2.0 mph 5.0 mph 92 % 0.00 in 0 W/m2
05:37 39.7 °F 37.6 °F 30.02 in NNW 2.0 mph 5.0 mph 92 % 0.00 in 5 W/m2
05:42 39.6 °F 37.4 °F 30.02 in NNW 2.0 mph 5.0 mph 92 % 0.00 in 7 W/m2
05:47 39.4 °F 37.2 °F 30.02 in NNW 2.0 mph 5.0 mph 92 % 0.00 in 9 W/m2
05:52 39.4 °F 37.2 °F 30.03 in NNW 1.0 mph 3.0 mph 92 % 0.00 in 11 W/m2
05:57 39.0 °F 36.9 °F 30.03 in NNW 1.0 mph 4.0 mph 92 % 0.00 in 12 W/m2
06:02 39.0 °F 36.9 °F 30.03 in NNW 2.0 mph 5.0 mph 92 % 0.00 in 12 W/m2
06:07 38.8 °F 37.0 °F 30.03 in NNW 2.0 mph 5.0 mph 93 % 0.00 in 16 W/m2
06:12 38.8 °F 37.0 °F 30.03 in NNW 1.0 mph 4.0 mph 93 % 0.00 in 18 W/m2
06:17 38.8 °F 37.0 °F 30.03 in NNW 1.0 mph 4.0 mph 93 % 0.00 in 19 W/m2
06:22 38.8 °F 37.0 °F 30.03 in NNW 1.0 mph 4.0 mph 93 % 0.00 in 53 W/m2
06:27 38.7 °F 36.8 °F 30.03 in NNW 1.0 mph 3.0 mph 93 % 0.00 in 53 W/m2
06:32 38.7 °F 36.8 °F 30.04 in Calm   2.0 mph 93 % 0.00 in 104 W/m2
06:37 38.8 °F 37.3 °F 30.03 in Calm   1.0 mph 94 % 0.00 in 114 W/m2
06:42 39.4 °F 37.8 °F 30.03 in Calm   2.0 mph 94 % 0.00 in 49 W/m2
06:47 39.7 °F 38.2 °F 30.03 in NNW 1.0 mph 3.0 mph 94 % 0.00 in 26 W/m2
06:52 39.7 °F 38.2 °F 30.04 in NW 1.0 mph 4.0 mph 94 % 0.00 in 60 W/m2
06:57 39.6 °F 37.7 °F 30.03 in NW 1.0 mph 4.0 mph 93 % 0.00 in 69 W/m2
07:02 39.6 °F 37.7 °F 30.03 in NW 1.0 mph 3.0 mph 93 % 0.00 in 83 W/m2
07:07 39.7 °F 38.2 °F 30.04 in NW 1.0 mph 5.0 mph 94 % 0.00 in 156 W/m2
07:12 40.3 °F 38.7 °F 30.04 in NW 1.0 mph 5.0 mph 94 % 0.00 in 206 W/m2
07:14 40.5 °F 39.1 °F 30.04 in NW 1.0 mph 5.0 mph 95 % 0.00 in 209 W/m2
07:19 41.2 °F 39.9 °F 30.04 in NW 1.0 mph 4.0 mph 95 % 0.00 in 221 W/m2
07:24 41.7 °F 40.1 °F 30.04 in NW 1.0 mph 5.0 mph 94 % 0.00 in 236 W/m2
07:25 41.9 °F 40.3 °F 30.04 in NW 1.0 mph 5.0 mph 94 % 0.00 in 239 W/m2
07:30 42.6 °F 41.0 °F 30.04 in NW 2.0 mph 5.0 mph 94 % 0.00 in 243 W/m2
07:31 42.6 °F 41.0 °F 30.04 in NW 2.0 mph 5.0 mph 94 % 0.00 in 244 W/m2
07:36 43.3 °F 41.5 °F 30.04 in NW 2.0 mph 5.0 mph 93 % 0.00 in 257 W/m2
07:41 44.2 °F 41.8 °F 30.04 in NW 1.0 mph 5.0 mph 91 % 0.00 in 276 W/m2
07:46 44.4 °F 41.4 °F 30.04 in NW 2.0 mph 6.0 mph 89 % 0.00 in 290 W/m2
07:51 44.6 °F 41.0 °F 30.04 in NW 3.0 mph 8.0 mph 87 % 0.00 in 316 W/m2
07:56 45.1 °F 41.5 °F 30.04 in NW 3.0 mph 8.0 mph 87 % 0.00 in 322 W/m2
08:01 45.9 °F 41.3 °F 30.04 in NNW 2.0 mph 8.0 mph 84 % 0.00 in 343 W/m2
08:06 46.8 °F 42.2 °F 30.04 in NW 2.0 mph 8.0 mph 84 % 0.00 in 374 W/m2
08:11 47.5 °F 41.9 °F 30.04 in NW 2.0 mph 9.0 mph 81 % 0.00 in 401 W/m2
08:16 47.8 °F 40.6 °F 30.04 in NNW 4.0 mph 11.0 mph 76 % 0.00 in 464 W/m2
08:21 48.2 °F 41.0 °F 30.04 in NNW 5.0 mph 11.0 mph 76 % 0.00 in 513 W/m2
08:26 48.6 °F 41.3 °F 30.04 in NNW 4.0 mph 11.0 mph 76 % 0.00 in 536 W/m2
08:31 48.4 °F 40.1 °F 30.04 in North 5.0 mph 10.0 mph 73 % 0.00 in 304 W/m2
08:41 48.4 °F 40.1 °F 30.04 in NNW 5.0 mph 11.0 mph 73 % 0.00 in 457 W/m2
08:46 48.6 °F 39.9 °F 30.04 in NNW 5.0 mph 11.0 mph 72 % 0.00 in 466 W/m2
08:51 48.9 °F 39.9 °F 30.04 in NNW 5.0 mph 10.0 mph 71 % 0.00 in 513 W/m2
08:56 48.9 °F 39.6 °F 30.04 in NNE 5.0 mph 10.0 mph 70 % 0.00 in 504 W/m2
09:01 49.1 °F 40.1 °F 30.04 in NE 4.0 mph 10.0 mph 71 % 0.00 in 540 W/m2
09:06 49.5 °F 39.7 °F 30.04 in NNE 3.0 mph 9.0 mph 69 % 0.00 in 578 W/m2
09:11 49.1 °F 39.0 °F 30.04 in NNE 5.0 mph 11.0 mph 68 % 0.00 in 626 W/m2
09:16 49.1 °F 39.4 °F 30.04 in NNE 6.0 mph 11.0 mph 69 % 0.00 in 489 W/m2
09:21 49.5 °F 40.1 °F 30.04 in NNE 5.0 mph 11.0 mph 70 % 0.00 in 473 W/m2
09:26 49.6 °F 39.5 °F 30.04 in NNE 4.0 mph 8.0 mph 68 % 0.00 in 659 W/m2
09:31 49.8 °F 39.7 °F 30.04 in NNE 5.0 mph 11.0 mph 68 % 0.00 in 540 W/m2
09:37 49.8 °F 39.3 °F 30.04 in NNE 5.0 mph 11.0 mph 67 % 0.00 in 360 W/m2
09:42 49.5 °F 39.0 °F 30.04 in NNE 5.0 mph 10.0 mph 67 % 0.00 in 301 W/m2
09:47 49.3 °F 38.8 °F 30.04 in NE 4.0 mph 9.0 mph 67 % 0.00 in 543 W/m2
09:52 49.1 °F 37.8 °F 30.03 in NNE 5.0 mph 9.0 mph 65 % 0.00 in 262 W/m2
09:57 48.9 °F 38.1 °F 30.03 in NE 4.0 mph 9.0 mph 66 % 0.00 in 673 W/m2
10:02 49.5 °F 39.3 °F 30.03 in NE 4.0 mph 8.0 mph 68 % 0.00 in 664 W/m2
10:07 49.6 °F 38.3 °F 30.03 in NE 4.0 mph 8.0 mph 65 % 0.00 in 705 W/m2
10:12 50.2 °F 39.3 °F 30.03 in NE 4.0 mph 11.0 mph 66 % 0.00 in 733 W/m2
10:17 50.5 °F 38.0 °F 30.03 in NNE 5.0 mph 11.0 mph 62 % 0.00 in 733 W/m2
10:22 50.7 °F 38.6 °F 30.03 in North 4.0 mph 11.0 mph 63 % 0.00 in 714 W/m2
10:27 50.7 °F 36.9 °F 30.03 in NNE 5.0 mph 10.0 mph 59 % 0.00 in 708 W/m2
10:32 50.9 °F 37.9 °F 30.03 in NNE 5.0 mph 11.0 mph 61 % 0.00 in 837 W/m2
10:37 51.3 °F 38.7 °F 30.03 in NNE 5.0 mph 14.0 mph 62 % 0.00 in 976 W/m2
10:42 51.1 °F 37.7 °F 30.03 in NNE 5.0 mph 14.0 mph 60 % 0.00 in 301 W/m2
10:47 50.7 °F 37.8 °F 30.03 in NNE 4.0 mph 9.0 mph 61 % 0.00 in 438 W/m2
10:52 50.5 °F 37.6 °F 30.02 in NNE 5.0 mph 10.0 mph 61 % 0.00 in 1025 W/m2
10:57 50.9 °F 39.1 °F 30.03 in NNE 4.0 mph 10.0 mph 64 % 0.00 in 1005 W/m2
11:02 51.1 °F 38.1 °F 30.02 in NE 4.0 mph 8.0 mph 61 % 0.00 in 283 W/m2
11:07 50.9 °F 38.7 °F 30.02 in NNE 4.0 mph 10.0 mph 63 % 0.00 in 320 W/m2
11:12 51.6 °F 39.4 °F 30.02 in North 5.0 mph 10.0 mph 63 % 0.00 in 719 W/m2
11:14 51.8 °F 39.2 °F 30.02 in North 5.0 mph 10.0 mph 62 % 0.00 in 299 W/m2
11:19 52.0 °F 38.5 °F 30.03 in North 5.0 mph 9.0 mph 60 % 0.00 in 399 W/m2
11:24 52.3 °F 38.9 °F 30.03 in NNW 5.0 mph 9.0 mph 60 % 0.00 in 759 W/m2
11:29 52.2 °F 37.8 °F 30.02 in NNW 4.0 mph 9.0 mph 58 % 0.00 in 452 W/m2
11:34 52.3 °F 38.4 °F 30.02 in NNW 4.0 mph 10.0 mph 59 % 0.00 in 468 W/m2
11:39 52.3 °F 38.4 °F 30.02 in North 4.0 mph 10.0 mph 59 % 0.00 in 320 W/m2
11:44 52.0 °F 37.7 °F 30.02 in North 4.0 mph 12.0 mph 58 % 0.00 in 330 W/m2
11:49 51.6 °F 37.7 °F 30.02 in NNW 5.0 mph 12.0 mph 59 % 0.00 in 329 W/m2
11:54 52.0 °F 38.5 °F 30.02 in NW 5.0 mph 12.0 mph 60 % 0.00 in 343 W/m2
11:59 52.0 °F 37.7 °F 30.02 in NNW 5.0 mph 12.0 mph 58 % 0.00 in 378 W/m2
12:04 51.8 °F 38.3 °F 30.02 in North 6.0 mph 11.0 mph 60 % 0.00 in 492 W/m2
12:09 52.2 °F 38.3 °F 30.02 in North 6.0 mph 10.0 mph 59 % 0.00 in 902 W/m2
12:14 52.9 °F 38.5 °F 30.01 in North 4.0 mph 9.0 mph 58 % 0.00 in 981 W/m2
12:19 53.6 °F 39.2 °F 30.01 in NNW 4.0 mph 13.0 mph 58 % 0.00 in 1083 W/m2
12:24 53.4 °F 38.6 °F 30.01 in North 5.0 mph 13.0 mph 57 % 0.00 in 504 W/m2
12:29 53.4 °F 39.0 °F 30.01 in NNE 3.0 mph 9.0 mph 58 % 0.00 in 494 W/m2
12:34 53.8 °F 38.9 °F 30.01 in NE 2.0 mph 9.0 mph 57 % 0.00 in 471 W/m2
12:39 53.4 °F 38.1 °F 30.01 in North 4.0 mph 10.0 mph 56 % 0.00 in 371 W/m2
12:44 53.1 °F 37.8 °F 30.01 in North 6.0 mph 11.0 mph 56 % 0.00 in 320 W/m2
12:49 52.9 °F 38.1 °F 30.01 in North 5.0 mph 11.0 mph 57 % 0.00 in 1065 W/m2
12:54 53.2 °F 39.3 °F 30.00 in NNE 4.0 mph 9.0 mph 59 % 0.00 in 895 W/m2
12:59 53.8 °F 38.9 °F 30.00 in NNE 3.0 mph 7.0 mph 57 % 0.00 in 884 W/m2
13:04 54.1 °F 38.8 °F 30.00 in NE 3.0 mph 8.0 mph 56 % 0.00 in 904 W/m2
13:09 54.7 °F 38.8 °F 30.00 in North 4.0 mph 9.0 mph 55 % 0.00 in 137 W/m2
13:14 54.7 °F 38.4 °F 30.00 in NNW 5.0 mph 12.0 mph 54 % 0.00 in 1021 W/m2
13:19 55.2 °F 38.9 °F 30.00 in NNW 5.0 mph 12.0 mph 54 % 0.00 in 977 W/m2
13:24 55.4 °F 38.1 °F 30.00 in NW 3.0 mph 12.0 mph 52 % 0.00 in 1051 W/m2
13:30 55.8 °F 39.4 °F 30.00 in North 1.0 mph 5.0 mph 54 % 0.00 in 1062 W/m2
13:35 56.5 °F 39.5 °F 30.00 in North 2.0 mph 8.0 mph 53 % 0.00 in 490 W/m2
13:40 56.7 °F 38.7 °F 30.00 in North 3.0 mph 8.0 mph 51 % 0.00 in 341 W/m2
13:45 56.1 °F 38.2 °F 30.00 in NNE 3.0 mph 8.0 mph 51 % 0.00 in 264 W/m2
13:50 55.2 °F 37.4 °F 30.00 in NE 3.0 mph 8.0 mph 51 % 0.00 in 471 W/m2
13:55 54.7 °F 37.9 °F 30.00 in NNE 4.0 mph 8.0 mph 53 % 0.00 in 315 W/m2
14:00 54.3 °F 38.0 °F 30.00 in NNE 4.0 mph 8.0 mph 54 % 0.00 in 381 W/m2
14:05 54.3 °F 38.0 °F 30.00 in North 3.0 mph 8.0 mph 54 % 0.00 in 399 W/m2
14:10 54.9 °F 38.0 °F 29.99 in NNW 2.0 mph 8.0 mph 53 % 0.00 in 359 W/m2
14:15 55.0 °F 38.2 °F 29.99 in North 1.0 mph 8.0 mph 53 % 0.00 in 359 W/m2
14:20 55.6 °F 39.7 °F 29.99 in North 2.0 mph 8.0 mph 55 % 0.00 in 598 W/m2
14:25 56.1 °F 38.2 °F 29.99 in NNW 3.0 mph 9.0 mph 51 % 0.00 in 399 W/m2
14:30 56.1 °F 38.2 °F 29.99 in NNW 3.0 mph 9.0 mph 51 % 0.00 in 408 W/m2
14:31 56.1 °F 38.7 °F 29.99 in North 3.0 mph 9.0 mph 52 % 0.00 in 411 W/m2
14:36 56.5 °F 39.5 °F 29.99 in North 4.0 mph 13.0 mph 53 % 0.00 in 541 W/m2
14:41 56.7 °F 39.2 °F 29.99 in NW 4.0 mph 13.0 mph 52 % 0.00 in 350 W/m2
14:46 56.7 °F 38.7 °F 29.99 in WNW 2.0 mph 7.0 mph 51 % 0.00 in 322 W/m2
14:51 56.5 °F 38.1 °F 29.99 in WNW 2.0 mph 5.0 mph 50 % 0.00 in 313 W/m2
14:56 56.1 °F 38.2 °F 29.99 in WNW 1.0 mph 4.0 mph 51 % 0.00 in 258 W/m2
15:01 56.1 °F 38.7 °F 29.98 in WNW 1.0 mph 5.0 mph 52 % 0.00 in 229 W/m2
15:06 55.9 °F 38.6 °F 29.99 in West 3.0 mph 7.0 mph 52 % 0.00 in 257 W/m2
15:11 55.8 °F 38.4 °F 29.99 in West 4.0 mph 7.0 mph 52 % 0.00 in 230 W/m2
15:16 55.6 °F 38.7 °F 29.98 in West 3.0 mph 7.0 mph 53 % 0.00 in 207 W/m2
15:21 55.4 °F 38.5 °F 29.98 in WNW 1.0 mph 6.0 mph 53 % 0.00 in 185 W/m2
15:26 55.0 °F 38.2 °F 29.98 in WSW 2.0 mph 6.0 mph 53 % 0.00 in 144 W/m2
15:31 54.9 °F 38.5 °F 29.98 in WSW 1.0 mph 5.0 mph 54 % 0.00 in 125 W/m2
15:36 54.9 °F 39.0 °F 29.98 in West 2.0 mph 7.0 mph 55 % 0.00 in 113 W/m2
15:41 55.0 °F 38.2 °F 29.98 in WNW 3.0 mph 7.0 mph 53 % 0.00 in 105 W/m2
15:46 54.9 °F 38.5 °F 29.98 in WNW 2.0 mph 7.0 mph 54 % 0.00 in 98 W/m2
15:51 54.9 °F 39.0 °F 29.98 in NW 2.0 mph 6.0 mph 55 % 0.00 in 98 W/m2
15:56 54.9 °F 39.0 °F 29.98 in NW 2.0 mph 6.0 mph 55 % 0.00 in 109 W/m2
16:01 54.7 °F 39.3 °F 29.98 in NW 1.0 mph 4.0 mph 56 % 0.00 in 111 W/m2
16:06 54.7 °F 38.8 °F 29.98 in NW 1.0 mph 3.0 mph 55 % 0.00 in 104 W/m2
16:11 54.5 °F 38.7 °F 29.98 in NW 2.0 mph 5.0 mph 55 % 0.00 in 81 W/m2
16:16 54.3 °F 38.5 °F 29.98 in WNW 2.0 mph 5.0 mph 55 % 0.00 in 70 W/m2
16:21 54.1 °F 38.3 °F 29.98 in West 2.0 mph 5.0 mph 55 % 0.00 in 65 W/m2
16:26 54.1 °F 38.8 °F 29.98 in West 1.0 mph 5.0 mph 56 % 0.00 in 72 W/m2
16:32 54.1 °F 39.2 °F 29.98 in West 1.0 mph 5.0 mph 57 % 0.00 in 76 W/m2
16:37 54.1 °F 39.2 °F 29.98 in West 1.0 mph 5.0 mph 57 % 0.00 in 84 W/m2
16:42 54.0 °F 39.1 °F 29.98 in West 1.0 mph 4.0 mph 57 % 0.00 in 84 W/m2
16:47 54.0 °F 39.5 °F 29.98 in West 1.0 mph 3.0 mph 58 % 0.00 in 70 W/m2
16:52 54.0 °F 39.1 °F 29.98 in West 1.0 mph 3.0 mph 57 % 0.00 in 49 W/m2
16:57 53.8 °F 38.9 °F 29.98 in West 1.0 mph 3.0 mph 57 % 0.00 in 42 W/m2
17:02 53.8 °F 39.3 °F 29.98 in West 1.0 mph 4.0 mph 58 % 0.00 in 47 W/m2
17:07 53.6 °F 39.6 °F 29.98 in West 1.0 mph 4.0 mph 59 % 0.00 in 53 W/m2
17:12 53.6 °F 40.0 °F 29.98 in West 1.0 mph 4.0 mph 60 % 0.00 in 65 W/m2
17:17 53.8 °F 40.6 °F 29.98 in West 2.0 mph 6.0 mph 61 % 0.00 in 76 W/m2
17:22 53.8 °F 40.6 °F 29.98 in West 2.0 mph 6.0 mph 61 % 0.00 in 81 W/m2
17:27 53.8 °F 40.6 °F 29.98 in WNW 2.0 mph 6.0 mph 61 % 0.00 in 88 W/m2
17:32 53.8 °F 40.6 °F 29.98 in West 2.0 mph 6.0 mph 61 % 0.00 in 90 W/m2
17:37 53.8 °F 40.6 °F 29.98 in West 2.0 mph 6.0 mph 61 % 0.00 in 83 W/m2
17:42 53.8 °F 40.6 °F 29.98 in West 2.0 mph 7.0 mph 61 % 0.00 in 79 W/m2
17:45 53.8 °F 40.6 °F 29.98 in WNW 3.0 mph 7.0 mph 61 % 0.00 in 77 W/m2
17:50 53.8 °F 41.1 °F 29.98 in WNW 3.0 mph 7.0 mph 62 % 0.00 in 77 W/m2
17:52 53.8 °F 41.1 °F 29.98 in WNW 3.0 mph 7.0 mph 62 % 0.00 in 74 W/m2
17:57 53.8 °F 41.1 °F 29.98 in WNW 2.0 mph 5.0 mph 62 % 0.00 in 69 W/m2
18:02 53.8 °F 41.5 °F 29.98 in WNW 2.0 mph 5.0 mph 63 % 0.00 in 62 W/m2
18:07 53.6 °F 41.3 °F 29.98 in West 2.0 mph 5.0 mph 63 % 0.00 in 58 W/m2
18:12 53.6 °F 41.3 °F 29.98 in West 2.0 mph 5.0 mph 63 % 0.00 in 54 W/m2
18:17 53.6 °F 41.3 °F 29.98 in West 1.0 mph 5.0 mph 63 % 0.00 in 51 W/m2
18:22 53.6 °F 41.7 °F 29.98 in West 1.0 mph 4.0 mph 64 % 0.00 in 46 W/m2
18:27 53.6 °F 41.7 °F 29.98 in Calm   2.0 mph 64 % 0.00 in 37 W/m2
18:32 53.6 °F 42.1 °F 29.98 in West 1.0 mph 4.0 mph 65 % 0.00 in 26 W/m2
18:37 53.4 °F 41.9 °F 29.98 in West 1.0 mph 5.0 mph 65 % 0.00 in 28 W/m2
18:42 53.4 °F 41.5 °F 29.98 in WNW 2.0 mph 6.0 mph 64 % 0.00 in 39 W/m2
18:47 53.2 °F 41.8 °F 29.97 in NW 2.0 mph 6.0 mph 65 % 0.00 in 44 W/m2
18:52 53.2 °F 42.2 °F 29.98 in NW 2.0 mph 6.0 mph 66 % 0.00 in 42 W/m2
18:57 53.1 °F 42.0 °F 29.97 in NW 1.0 mph 6.0 mph 66 % 0.00 in 39 W/m2
19:02 53.1 °F 42.0 °F 29.98 in NW 2.0 mph 6.0 mph 66 % 0.00 in 37 W/m2
19:07 52.9 °F 41.8 °F 29.98 in WNW 2.0 mph 7.0 mph 66 % 0.00 in 32 W/m2
19:12 52.9 °F 42.2 °F 29.98 in WNW 3.0 mph 7.0 mph 67 % 0.00 in 28 W/m2
19:17 52.7 °F 41.7 °F 29.98 in WNW 4.0 mph 7.0 mph 66 % 0.00 in 26 W/m2
19:22 52.5 °F 41.9 °F 29.98 in WNW 4.0 mph 7.0 mph 67 % 0.00 in 28 W/m2
19:27 52.3 °F 41.7 °F 29.98 in WNW 3.0 mph 6.0 mph 67 % 0.00 in 30 W/m2
19:32 52.3 °F 42.1 °F 29.98 in WNW 2.0 mph 6.0 mph 68 % 0.00 in 26 W/m2
19:37 52.3 °F 42.1 °F 29.98 in WNW 2.0 mph 6.0 mph 68 % 0.00 in 21 W/m2
19:42 52.2 °F 41.9 °F 29.97 in WNW 1.0 mph 6.0 mph 68 % 0.00 in 16 W/m2
19:47 52.2 °F 42.3 °F 29.97 in NW 1.0 mph 4.0 mph 69 % 0.00 in 14 W/m2
19:52 52.0 °F 42.1 °F 29.98 in NW 1.0 mph 4.0 mph 69 % 0.00 in 12 W/m2
19:57 52.0 °F 42.1 °F 29.98 in NW 1.0 mph 4.0 mph 69 % 0.00 in 11 W/m2
20:02 51.8 °F 42.3 °F 29.98 in NW 1.0 mph 5.0 mph 70 % 0.00 in 11 W/m2
20:07 51.6 °F 42.2 °F 29.97 in WNW 1.0 mph 5.0 mph 70 % 0.00 in 9 W/m2
20:12 51.6 °F 42.2 °F 29.98 in WNW 2.0 mph 5.0 mph 70 % 0.00 in 7 W/m2
20:17 51.4 °F 42.0 °F 29.98 in WNW 1.0 mph 5.0 mph 70 % 0.00 in 5 W/m2
20:22 51.4 °F 42.3 °F 29.98 in WNW 1.0 mph 2.0 mph 71 % 0.00 in 0 W/m2
20:27 51.3 °F 42.2 °F 29.97 in Calm   2.0 mph 71 % 0.00 in 0 W/m2
20:32 51.3 °F 42.2 °F 29.97 in Calm   2.0 mph 71 % 0.00 in 0 W/m2
20:37 51.1 °F 42.0 °F 29.98 in Calm   1.0 mph 71 % 0.00 in 0 W/m2
20:42 51.1 °F 42.4 °F 29.98 in Calm     72 % 0.00 in 0 W/m2
20:47 50.9 °F 42.2 °F 29.98 in Calm     72 % 0.00 in 0 W/m2
20:52 50.9 °F 42.2 °F 29.98 in Calm     72 % 0.00 in 0 W/m2
20:57 50.7 °F 42.4 °F 29.98 in Calm     73 % 0.00 in 0 W/m2
21:02 50.7 °F 42.4 °F 29.98 in Calm     73 % 0.00 in 0 W/m2
21:07 50.5 °F 42.6 °F 29.98 in Calm   2.0 mph 74 % 0.00 in 0 W/m2
21:12 50.5 °F 42.6 °F 29.98 in Calm   2.0 mph 74 % 0.00 in 0 W/m2
21:17 50.4 °F 42.4 °F 29.98 in Calm   1.0 mph 74 % 0.00 in 0 W/m2
21:22 50.2 °F 42.6 °F 29.98 in WNW 1.0 mph 5.0 mph 75 % 0.00 in 0 W/m2
21:27 50.2 °F 42.9 °F 29.99 in WNW 2.0 mph 5.0 mph 76 % 0.00 in 0 W/m2
21:32 50.0 °F 42.7 °F 29.98 in WNW 1.0 mph 5.0 mph 76 % 0.00 in 0 W/m2
21:37 50.0 °F 43.1 °F 29.99 in WNW 1.0 mph 5.0 mph 77 % 0.00 in 0 W/m2
21:42 49.8 °F 42.9 °F 29.99 in WNW 1.0 mph 5.0 mph 77 % 0.00 in 0 W/m2
21:47 49.8 °F 42.9 °F 29.99 in WNW 1.0 mph 5.0 mph 77 % 0.00 in 0 W/m2
21:52 49.6 °F 43.1 °F 29.99 in Calm   5.0 mph 78 % 0.00 in 0 W/m2
21:57 49.6 °F 43.1 °F 29.99 in Calm   2.0 mph 78 % 0.00 in 0 W/m2
22:02 49.6 °F 43.4 °F 29.99 in Calm     79 % 0.00 in 0 W/m2
22:07 49.6 °F 43.4 °F 29.99 in Calm   2.0 mph 79 % 0.00 in 0 W/m2
22:12 49.6 °F 43.4 °F 29.99 in Calm   2.0 mph 79 % 0.00 in 0 W/m2
22:17 49.5 °F 43.5 °F 29.99 in Calm   2.0 mph 80 % 0.00 in 0 W/m2
22:22 49.5 °F 43.5 °F 29.99 in Calm   2.0 mph 80 % 0.00 in 0 W/m2
22:27 49.5 °F 43.5 °F 29.99 in Calm   2.0 mph 80 % 0.00 in 0 W/m2
22:32 49.3 °F 43.7 °F 29.99 in Calm   2.0 mph 81 % 0.00 in 0 W/m2
22:37 49.3 °F 43.7 °F 29.99 in Calm   2.0 mph 81 % 0.00 in 0 W/m2
22:42 49.3 °F 43.7 °F 29.99 in Calm     81 % 0.00 in 0 W/m2
22:47 49.3 °F 43.7 °F 29.99 in Calm   1.0 mph 81 % 0.00 in 0 W/m2
22:52 49.1 °F 43.8 °F 29.99 in Calm   2.0 mph 82 % 0.00 in 0 W/m2
22:57 49.1 °F 43.8 °F 29.99 in Calm   2.0 mph 82 % 0.00 in 0 W/m2
23:02 48.9 °F 43.7 °F 29.99 in Calm   3.0 mph 82 % 0.00 in 0 W/m2
23:07 48.9 °F 44.0 °F 29.99 in Calm   3.0 mph 83 % 0.00 in 0 W/m2
23:12 48.9 °F 44.0 °F 29.99 in Calm   2.0 mph 83 % 0.00 in 0 W/m2
23:18 48.7 °F 43.8 °F 29.99 in WNW 1.0 mph 5.0 mph 83 % 0.00 in 0 W/m2
23:23 48.6 °F 43.6 °F 29.99 in WNW 2.0 mph 5.0 mph 83 % 0.00 in 0 W/m2
23:28 48.6 °F 43.6 °F 29.99 in WNW 1.0 mph 5.0 mph 83 % 0.00 in 0 W/m2
23:33 48.6 °F 43.6 °F 29.99 in WNW 1.0 mph 5.0 mph 83 % 0.00 in 0 W/m2
23:38 48.4 °F 43.5 °F 29.99 in Calm   2.0 mph 83 % 0.00 in 0 W/m2
23:43 48.4 °F 43.8 °F 29.98 in Calm   2.0 mph 84 % 0.00 in 0 W/m2
23:48 48.4 °F 43.8 °F 29.98 in Calm   2.0 mph 84 % 0.00 in 0 W/m2
23:53 48.2 °F 43.6 °F 29.98 in Calm   4.0 mph 84 % 0.00 in 0 W/m2
23:58 48.0 °F 43.4 °F 29.98 in WNW 1.0 mph 4.0 mph 84 % 0.00 in 0 W/m2
Delerius-Weather
Compliments of Weather Underground - 2.25 mb

Data updates at regular intervals.